createdAt,value
2022-10-05T00:02:38.346Z,13.35
2022-10-05T00:05:41.021Z,13.43
2022-10-05T00:08:44.180Z,13.23
2022-10-05T00:11:49.304Z,13.23
2022-10-05T00:14:54.433Z,13.43
2022-10-05T00:17:57.017Z,13.27
2022-10-05T00:20:59.597Z,13.57
2022-10-05T00:24:02.492Z,13.38
2022-10-05T00:27:15.687Z,13.34
2022-10-05T00:30:20.178Z,13.46
2022-10-05T00:33:22.659Z,13.34
2022-10-05T00:36:26.096Z,13.52
2022-10-05T00:39:29.940Z,13.38
2022-10-05T00:42:47.785Z,13.50
2022-10-05T00:45:56.069Z,13.52
2022-10-05T00:49:04.177Z,13.72
2022-10-05T00:52:20.415Z,13.39
2022-10-05T00:55:33.507Z,13.44
2022-10-05T00:58:55.643Z,13.45
2022-10-05T01:02:03.857Z,13.78
2022-10-05T01:05:13.367Z,13.79
2022-10-05T01:08:28.908Z,13.91
2022-10-05T01:11:38.141Z,13.73
2022-10-05T01:14:48.113Z,13.72
2022-10-05T01:17:58.030Z,13.84
2022-10-05T01:21:07.157Z,13.78
2022-10-05T01:24:41.299Z,13.75
2022-10-05T01:27:51.850Z,13.73
2022-10-05T01:31:01.748Z,13.67
2022-10-05T01:34:11.428Z,13.78
2022-10-05T01:37:23.159Z,13.74
2022-10-05T01:40:34.854Z,13.82
2022-10-05T01:43:45.973Z,13.75
2022-10-05T01:46:56.445Z,13.87
2022-10-05T01:50:04.480Z,13.85
2022-10-05T01:53:13.645Z,13.88
2022-10-05T01:56:22.650Z,13.94
2022-10-05T01:59:34.951Z,13.77
2022-10-05T02:02:42.347Z,13.64
2022-10-05T02:05:51.470Z,13.68
2022-10-05T02:08:59.547Z,13.46
2022-10-05T02:12:07.664Z,13.48
2022-10-05T02:15:15.592Z,13.68
2022-10-05T02:18:22.130Z,13.51
2022-10-05T02:21:25.963Z,13.56
2022-10-05T02:24:33.314Z,13.48
2022-10-05T02:27:41.855Z,13.46
2022-10-05T02:30:50.121Z,13.43
2022-10-05T02:33:52.733Z,13.56
2022-10-05T02:37:15.452Z,13.49
2022-10-05T02:40:32.154Z,13.77
2022-10-05T02:43:45.421Z,13.75
2022-10-05T02:46:57.711Z,13.80
2022-10-05T02:50:09.223Z,13.79
2022-10-05T02:53:21.333Z,13.73
2022-10-05T02:56:30.930Z,13.65
2022-10-05T02:59:38.888Z,13.45
2022-10-05T03:02:48.476Z,13.32
2022-10-05T03:05:56.771Z,13.56
2022-10-05T03:09:03.879Z,13.51
2022-10-05T03:12:16.021Z,13.80
2022-10-05T03:15:32.268Z,13.92
2022-10-05T03:18:49.212Z,13.64
2022-10-05T03:21:59.784Z,13.85
2022-10-05T03:25:22.894Z,13.75
2022-10-05T03:28:33.596Z,13.64
2022-10-05T03:31:44.725Z,13.65
2022-10-05T03:34:53.875Z,13.85
2022-10-05T03:38:18.765Z,13.94
2022-10-05T03:41:27.871Z,14.06
2022-10-05T03:44:41.948Z,14.10
2022-10-05T03:47:50.917Z,14.19
2022-10-05T03:51:02.950Z,13.86
2022-10-05T03:54:12.705Z,13.76
2022-10-05T03:57:19.465Z,14.01
2022-10-05T04:00:24.223Z,14.11
2022-10-05T04:03:35.003Z,13.87
2022-10-05T04:06:46.455Z,13.87
2022-10-05T04:09:53.658Z,13.93
2022-10-05T04:13:02.237Z,14.06
2022-10-05T04:16:11.838Z,14.02
2022-10-05T04:19:19.032Z,13.83
2022-10-05T04:22:26.414Z,14.01
2022-10-05T04:25:33.146Z,13.81
2022-10-05T04:28:44.430Z,13.81
2022-10-05T04:31:58.390Z,13.86
2022-10-05T04:35:16.657Z,13.90
2022-10-05T04:38:28.947Z,13.87
2022-10-05T04:41:58.994Z,13.94
2022-10-05T04:45:09.347Z,13.97
2022-10-05T04:48:46.675Z,13.98
2022-10-05T04:51:57.429Z,13.69
2022-10-05T04:55:10.449Z,13.75
2022-10-05T04:58:23.896Z,14.03
2022-10-05T05:02:03.256Z,13.71
2022-10-05T05:05:28.311Z,13.64
2022-10-05T05:08:46.960Z,13.74
2022-10-05T05:12:04.665Z,13.88
2022-10-05T05:15:37.498Z,13.94
2022-10-05T05:19:13.850Z,13.98
2022-10-05T05:22:25.928Z,13.83
2022-10-05T05:25:40.725Z,13.81
2022-10-05T05:28:52.113Z,13.83
2022-10-05T05:32:01.396Z,13.63
2022-10-05T05:35:23.193Z,13.53
2022-10-05T05:38:32.290Z,13.74
2022-10-05T05:41:39.614Z,13.93
2022-10-05T05:44:48.893Z,13.99
2022-10-05T05:47:54.736Z,14.03
2022-10-05T05:51:01.392Z,13.97
2022-10-05T05:54:25.614Z,13.52
2022-10-05T05:57:32.978Z,13.58
2022-10-05T06:00:43.683Z,13.73
2022-10-05T06:03:49.883Z,13.87
2022-10-05T06:06:54.911Z,13.87
2022-10-05T06:10:02.577Z,14.00
2022-10-05T06:13:10.943Z,13.91
2022-10-05T06:16:20.572Z,13.91
2022-10-05T06:19:24.825Z,13.81
2022-10-05T06:22:33.570Z,13.90
2022-10-05T06:25:43.414Z,13.86
2022-10-05T06:28:51.629Z,13.71
2022-10-05T06:32:06.505Z,13.90
2022-10-05T06:35:17.406Z,13.86
2022-10-05T06:38:45.109Z,13.90
2022-10-05T06:42:02.706Z,13.92
2022-10-05T06:45:10.733Z,14.17
2022-10-05T06:48:21.945Z,14.03
2022-10-05T06:51:33.158Z,13.96
2022-10-05T06:54:46.063Z,14.00
2022-10-05T06:58:01.252Z,14.11
2022-10-05T07:01:10.619Z,14.22
2022-10-05T07:04:38.337Z,14.04
2022-10-05T07:07:47.931Z,14.07
2022-10-05T07:11:05.248Z,14.09
2022-10-05T07:14:23.561Z,14.16
2022-10-05T07:17:42.477Z,14.27
2022-10-05T07:20:55.413Z,14.11
2022-10-05T07:24:09.295Z,14.23
2022-10-05T07:27:18.233Z,14.13
2022-10-05T07:30:21.290Z,14.22
2022-10-05T07:33:29.895Z,14.07
2022-10-05T07:36:58.673Z,14.23
2022-10-05T07:40:11.507Z,14.23
2022-10-05T07:43:51.116Z,14.16
2022-10-05T07:46:57.299Z,14.23
2022-10-05T07:50:04.045Z,14.30
2022-10-05T07:53:16.661Z,14.36
2022-10-05T07:56:24.242Z,14.61
2022-10-05T07:59:33.515Z,14.55
2022-10-05T08:02:42.928Z,14.79
2022-10-05T08:05:47.141Z,14.80
2022-10-05T08:08:57.298Z,14.76
2022-10-05T08:12:08.605Z,14.69
2022-10-05T08:15:16.395Z,14.62
2022-10-05T08:18:37.438Z,14.79
2022-10-05T08:21:44.702Z,14.70
2022-10-05T08:24:58.715Z,14.82
2022-10-05T08:28:09.474Z,14.89
2022-10-05T08:31:20.621Z,14.98
2022-10-05T08:34:29.621Z,14.82
2022-10-05T08:37:35.448Z,14.84
2022-10-05T08:41:18.359Z,14.97
2022-10-05T08:44:55.958Z,15.26
2022-10-05T08:48:31.803Z,15.12
2022-10-05T08:51:50.476Z,15.20
2022-10-05T08:55:20.651Z,15.38
2022-10-05T08:58:58.331Z,15.33
2022-10-05T09:02:18.242Z,15.43
2022-10-05T09:05:51.550Z,15.58
2022-10-05T09:09:39.977Z,15.64
2022-10-05T09:13:12.364Z,15.69
2022-10-05T09:16:45.459Z,15.76
2022-10-05T09:20:00.790Z,15.68
2022-10-05T09:23:14.492Z,15.63
2022-10-05T09:26:44.270Z,15.82
2022-10-05T09:30:11.582Z,15.55
2022-10-05T09:33:33.673Z,15.58
2022-10-05T09:37:20.038Z,15.68
2022-10-05T09:40:59.917Z,15.80
2022-10-05T09:44:29.904Z,15.95
2022-10-05T09:48:00.856Z,15.98
2022-10-05T09:51:36.922Z,15.77
2022-10-05T09:55:14.372Z,16.01
2022-10-05T09:58:53.048Z,16.11
2022-10-05T10:02:14.016Z,15.97
2022-10-05T10:05:33.125Z,16.19
2022-10-05T10:08:46.564Z,16.23
2022-10-05T10:12:07.345Z,16.29
2022-10-05T10:15:34.213Z,16.37
2022-10-05T10:19:03.631Z,16.24
2022-10-05T10:22:22.808Z,16.20
2022-10-05T10:25:53.170Z,16.27
2022-10-05T10:29:16.915Z,16.32
2022-10-05T10:32:50.693Z,16.39
2022-10-05T10:36:01.658Z,16.51
2022-10-05T10:39:13.281Z,16.55
2022-10-05T10:42:33.334Z,16.60
2022-10-05T10:45:49.095Z,16.60
2022-10-05T10:49:10.353Z,16.50
2022-10-05T10:52:25.820Z,16.47
2022-10-05T10:55:33.363Z,16.52
2022-10-05T10:58:58.724Z,16.55
2022-10-05T11:02:26.991Z,16.62
2022-10-05T11:05:56.672Z,16.55
2022-10-05T11:09:19.856Z,16.39
2022-10-05T11:12:56.213Z,16.33
2022-10-05T11:16:22.171Z,16.23
2022-10-05T11:20:02.973Z,16.15
2022-10-05T11:23:34.160Z,16.21
2022-10-05T11:27:07.436Z,16.15
2022-10-05T11:30:52.953Z,16.38
2022-10-05T11:34:42.084Z,16.25
2022-10-05T11:38:07.521Z,16.22
2022-10-05T11:41:33.828Z,16.39
2022-10-05T11:45:11.779Z,16.52
2022-10-05T11:48:34.366Z,16.43
2022-10-05T11:51:49.353Z,16.49
2022-10-05T11:55:10.939Z,16.66
2022-10-05T11:58:20.920Z,16.48
2022-10-05T12:01:30.893Z,16.38
2022-10-05T12:04:46.213Z,16.70
2022-10-05T12:08:07.651Z,16.92
2022-10-05T12:11:30.529Z,17.05
2022-10-05T12:14:42.830Z,17.29
2022-10-05T12:17:51.537Z,17.50
2022-10-05T12:20:59.901Z,17.38
2022-10-05T12:24:14.023Z,17.48
2022-10-05T12:27:21.480Z,17.32
2022-10-05T12:30:33.672Z,17.45
2022-10-05T12:33:47.044Z,17.27
2022-10-05T12:37:04.425Z,17.26
2022-10-05T12:40:23.050Z,17.16
2022-10-05T12:43:34.340Z,17.32
2022-10-05T12:46:44.101Z,17.26
2022-10-05T12:50:02.914Z,17.77
2022-10-05T12:53:25.494Z,17.70
2022-10-05T12:56:40.685Z,18.21
2022-10-05T12:59:50.079Z,18.03
2022-10-05T13:02:58.953Z,18.34
2022-10-05T13:06:15.216Z,18.34
2022-10-05T13:09:23.921Z,18.54
2022-10-05T13:12:38.183Z,18.47
2022-10-05T13:15:50.631Z,18.97
2022-10-05T13:19:10.351Z,18.83
2022-10-05T13:22:36.692Z,18.27
2022-10-05T13:25:47.697Z,17.97
2022-10-05T13:28:58.381Z,18.09
2022-10-05T13:32:07.184Z,18.24
2022-10-05T13:35:28.505Z,17.81
2022-10-05T13:38:45.280Z,18.10
2022-10-05T13:41:54.399Z,18.25
2022-10-05T13:45:04.386Z,18.08
2022-10-05T13:48:19.792Z,18.02
2022-10-05T13:51:25.167Z,18.07
2022-10-05T13:54:37.259Z,18.22
2022-10-05T13:57:49.656Z,18.12
2022-10-05T14:00:56.451Z,18.11
2022-10-05T14:04:07.577Z,18.10
2022-10-05T14:07:24.782Z,18.25
2022-10-05T14:10:35.091Z,17.77
2022-10-05T14:13:47.743Z,17.93
2022-10-05T14:16:53.425Z,18.03
2022-10-05T14:19:59.749Z,17.94
2022-10-05T14:23:04.946Z,18.04
2022-10-05T14:26:18.968Z,18.17
2022-10-05T14:29:25.566Z,18.20
2022-10-05T14:32:32.367Z,18.06
2022-10-05T14:35:48.892Z,18.03
2022-10-05T14:38:53.931Z,18.09
2022-10-05T14:41:56.710Z,18.17
2022-10-05T14:45:01.011Z,18.02
2022-10-05T14:48:11.502Z,17.92
2022-10-05T14:51:25.441Z,17.89
2022-10-05T14:54:41.741Z,18.00
2022-10-05T14:57:54.019Z,17.87
2022-10-05T15:01:02.724Z,17.88
2022-10-05T15:04:24.896Z,17.84
2022-10-05T15:07:38.794Z,17.79
2022-10-05T15:10:43.905Z,17.91
2022-10-05T15:13:47.462Z,17.87
2022-10-05T15:16:53.738Z,17.79
2022-10-05T15:20:05.089Z,17.80
2022-10-05T15:23:24.779Z,17.78
2022-10-05T15:26:41.101Z,17.60
2022-10-05T15:29:56.473Z,17.60
2022-10-05T15:33:12.843Z,17.63
2022-10-05T15:36:19.845Z,17.62
2022-10-05T15:39:34.688Z,17.56
2022-10-05T15:42:39.340Z,17.52
2022-10-05T15:45:53.755Z,17.61
2022-10-05T15:49:08.268Z,17.51
2022-10-05T15:52:23.866Z,17.66
2022-10-05T15:55:35.119Z,17.57
2022-10-05T15:58:51.915Z,17.61
2022-10-05T16:02:00.761Z,17.48
2022-10-05T16:05:19.857Z,17.46
2022-10-05T16:08:50.535Z,17.52
2022-10-05T16:12:03.318Z,17.39
2022-10-05T16:15:18.588Z,17.33
2022-10-05T16:18:46.192Z,17.47
2022-10-05T16:21:59.579Z,17.39
2022-10-05T16:25:15.900Z,17.26
2022-10-05T16:28:29.750Z,17.17
2022-10-05T16:31:38.183Z,17.30
2022-10-05T16:34:54.306Z,17.00
2022-10-05T16:38:06.788Z,16.99
2022-10-05T16:41:17.538Z,16.89
2022-10-05T16:44:31.238Z,16.83
2022-10-05T16:47:43.923Z,16.83
2022-10-05T16:50:59.435Z,16.77
2022-10-05T16:54:12.923Z,17.00
2022-10-05T16:57:22.110Z,16.73
2022-10-05T17:00:29.883Z,16.73
2022-10-05T17:03:48.362Z,16.75
2022-10-05T17:07:07.714Z,16.70
2022-10-05T17:10:47.658Z,16.68
2022-10-05T17:14:20.128Z,16.72
2022-10-05T17:17:38.469Z,16.70
2022-10-05T17:20:49.116Z,16.70
2022-10-05T17:23:57.767Z,16.78
2022-10-05T17:27:17.695Z,16.88
2022-10-05T17:30:36.363Z,16.82
2022-10-05T17:34:26.343Z,16.79
2022-10-05T17:37:36.973Z,16.89
2022-10-05T17:40:40.356Z,16.94
2022-10-05T17:44:32.956Z,16.82
2022-10-05T17:47:57.599Z,16.83
2022-10-05T17:51:17.715Z,16.79
2022-10-05T17:54:40.654Z,16.86
2022-10-05T17:57:43.206Z,16.74
2022-10-05T18:01:14.204Z,16.82
2022-10-05T18:04:33.622Z,16.64
2022-10-05T18:07:37.282Z,16.53
2022-10-05T18:11:00.030Z,16.60
2022-10-05T18:14:19.211Z,16.68
2022-10-05T18:17:38.290Z,16.58
2022-10-05T18:20:44.675Z,16.48
2022-10-05T18:24:01.057Z,16.66
2022-10-05T18:27:15.638Z,16.82
2022-10-05T18:30:22.309Z,16.63
2022-10-05T18:34:13.146Z,16.74
2022-10-05T18:37:31.539Z,16.82
2022-10-05T18:40:43.120Z,16.69
2022-10-05T18:43:57.184Z,16.73
2022-10-05T18:47:07.039Z,16.84
2022-10-05T18:50:24.322Z,16.72
2022-10-05T18:53:38.284Z,16.71
2022-10-05T18:56:46.419Z,16.75
2022-10-05T18:59:58.259Z,16.68
2022-10-05T19:03:08.199Z,16.52
2022-10-05T19:06:19.479Z,16.67
2022-10-05T19:09:39.490Z,16.59
2022-10-05T19:12:54.719Z,16.74
2022-10-05T19:16:14.532Z,16.69
2022-10-05T19:19:35.802Z,16.64
2022-10-05T19:22:55.680Z,16.43
2022-10-05T19:26:09.951Z,16.49
2022-10-05T19:29:23.923Z,16.38
2022-10-05T19:32:38.887Z,16.33
2022-10-05T19:35:58.053Z,16.35
2022-10-05T19:39:07.998Z,16.09
2022-10-05T19:42:31.264Z,15.96
2022-10-05T19:45:40.105Z,16.12
2022-10-05T19:48:45.483Z,16.27
2022-10-05T19:51:50.976Z,16.24
2022-10-05T19:55:12.077Z,16.02
2022-10-05T19:58:21.454Z,15.98
2022-10-05T20:01:26.344Z,15.97
2022-10-05T20:04:37.461Z,15.89
2022-10-05T20:07:40.922Z,15.68
2022-10-05T20:10:44.162Z,15.78
2022-10-05T20:14:11.492Z,15.85
2022-10-05T20:17:44.705Z,15.65
2022-10-05T20:20:49.325Z,15.70
2022-10-05T20:24:07.189Z,15.84
2022-10-05T20:27:37.077Z,15.92
2022-10-05T20:30:39.578Z,15.98
2022-10-05T20:33:43.374Z,16.03
2022-10-05T20:36:45.997Z,16.11
2022-10-05T20:39:48.830Z,16.17
2022-10-05T20:42:51.587Z,16.26
2022-10-05T20:45:54.093Z,16.27
2022-10-05T20:48:58.468Z,16.49
2022-10-05T20:52:01.151Z,16.57
2022-10-05T20:55:04.249Z,16.59
2022-10-05T20:58:08.809Z,16.60
2022-10-05T21:01:18.908Z,16.58
2022-10-05T21:04:24.831Z,16.60
2022-10-05T21:07:27.372Z,16.55
2022-10-05T21:10:29.880Z,16.64
2022-10-05T21:13:32.370Z,16.71
2022-10-05T21:16:38.077Z,16.70
2022-10-05T21:19:42.055Z,16.73
2022-10-05T21:22:44.561Z,16.70
2022-10-05T21:25:48.613Z,16.86
2022-10-05T21:28:51.125Z,16.88
2022-10-05T21:31:53.685Z,16.87
2022-10-05T21:34:57.561Z,16.78
2022-10-05T21:38:00.045Z,16.83
2022-10-05T21:41:02.548Z,16.73
2022-10-05T21:44:06.214Z,16.76
2022-10-05T21:47:08.750Z,16.86
2022-10-05T21:50:12.686Z,16.92
2022-10-05T21:53:18.169Z,16.89
2022-10-05T21:56:24.027Z,17.05
2022-10-05T21:59:30.178Z,17.10
2022-10-05T22:02:32.676Z,17.07
2022-10-05T22:05:36.812Z,17.07
2022-10-05T22:08:39.421Z,16.99
2022-10-05T22:11:41.905Z,17.03
2022-10-05T22:14:44.579Z,17.06
2022-10-05T22:17:47.063Z,17.06
2022-10-05T22:20:51.324Z,17.06
2022-10-05T22:23:53.860Z,17.09
2022-10-05T22:26:56.408Z,17.12
2022-10-05T22:29:59.102Z,17.18
2022-10-05T22:33:01.625Z,17.20
2022-10-05T22:36:07.119Z,17.08
2022-10-05T22:39:09.873Z,17.14
2022-10-05T22:42:12.380Z,17.23
2022-10-05T22:45:15.053Z,17.17
2022-10-05T22:48:17.542Z,17.15
2022-10-05T22:51:21.389Z,17.17
2022-10-05T22:54:28.725Z,17.25
2022-10-05T22:57:38.747Z,17.27
2022-10-05T23:00:57.470Z,17.28
2022-10-05T23:04:00.412Z,17.24
2022-10-05T23:07:04.391Z,17.22
2022-10-05T23:10:08.598Z,17.26
2022-10-05T23:13:11.087Z,17.24
2022-10-05T23:16:15.237Z,17.21
2022-10-05T23:19:17.791Z,17.17
2022-10-05T23:22:22.037Z,16.95
2022-10-05T23:25:25.534Z,16.52
2022-10-05T23:28:28.847Z,16.51
2022-10-05T23:31:33.435Z,16.38
2022-10-05T23:34:36.029Z,16.03
2022-10-05T23:37:40.894Z,16.04
2022-10-05T23:40:47.355Z,15.94
2022-10-05T23:43:50.585Z,15.90
2022-10-05T23:46:53.083Z,15.92
2022-10-05T23:49:56.155Z,15.97
2022-10-05T23:52:59.986Z,15.79
2022-10-05T23:56:02.790Z,15.84
2022-10-05T23:59:05.283Z,15.72
